sensor_id;sensor_type;location;lat;lon;timestamp;P1;durP1;ratioP1;P2;durP2;ratioP2
757;SDS011;363;48.764;9.172;2022-10-12T00:00:38;20.50;;;15.00;;
757;SDS011;363;48.764;9.172;2022-10-12T00:03:04;22.73;;;14.13;;
757;SDS011;363;48.764;9.172;2022-10-12T00:05:29;17.60;;;14.60;;
757;SDS011;363;48.764;9.172;2022-10-12T00:07:55;17.53;;;14.47;;
757;SDS011;363;48.764;9.172;2022-10-12T00:10:20;15.83;;;13.47;;
757;SDS011;363;48.764;9.172;2022-10-12T00:12:46;17.20;;;14.63;;
757;SDS011;363;48.764;9.172;2022-10-12T00:15:11;19.33;;;15.17;;
757;SDS011;363;48.764;9.172;2022-10-12T00:17:37;17.90;;;13.70;;
757;SDS011;363;48.764;9.172;2022-10-12T00:20:03;18.60;;;13.87;;
757;SDS011;363;48.764;9.172;2022-10-12T00:22:29;15.05;;;12.45;;
757;SDS011;363;48.764;9.172;2022-10-12T00:24:55;19.35;;;14.23;;
757;SDS011;363;48.764;9.172;2022-10-12T00:27:20;20.33;;;14.77;;
757;SDS011;363;48.764;9.172;2022-10-12T00:29:46;16.07;;;13.50;;
757;SDS011;363;48.764;9.172;2022-10-12T00:32:12;16.30;;;14.57;;
757;SDS011;363;48.764;9.172;2022-10-12T00:34:39;19.13;;;15.75;;
757;SDS011;363;48.764;9.172;2022-10-12T00:37:04;17.53;;;15.10;;
757;SDS011;363;48.764;9.172;2022-10-12T00:39:30;18.77;;;15.20;;
757;SDS011;363;48.764;9.172;2022-10-12T00:41:55;17.23;;;14.93;;
757;SDS011;363;48.764;9.172;2022-10-12T00:44:34;20.70;;;14.70;;
757;SDS011;363;48.764;9.172;2022-10-12T00:53:00;19.58;;;16.15;;
757;SDS011;363;48.764;9.172;2022-10-12T00:55:34;19.25;;;14.45;;
757;SDS011;363;48.764;9.172;2022-10-12T00:58:04;22.95;;;16.23;;
757;SDS011;363;48.764;9.172;2022-10-12T01:00:32;20.50;;;15.68;;
757;SDS011;363;48.764;9.172;2022-10-12T01:02:59;19.63;;;14.80;;
757;SDS011;363;48.764;9.172;2022-10-12T01:05:25;18.38;;;14.85;;
757;SDS011;363;48.764;9.172;2022-10-12T01:07:51;18.27;;;15.10;;
757;SDS011;363;48.764;9.172;2022-10-12T01:10:17;16.63;;;13.03;;
757;SDS011;363;48.764;9.172;2022-10-12T01:12:43;20.40;;;14.70;;
757;SDS011;363;48.764;9.172;2022-10-12T01:15:11;18.50;;;14.50;;
757;SDS011;363;48.764;9.172;2022-10-12T01:22:55;17.73;;;14.30;;
757;SDS011;363;48.764;9.172;2022-10-12T01:26:00;15.35;;;13.30;;
757;SDS011;363;48.764;9.172;2022-10-12T01:31:25;18.83;;;16.38;;
757;SDS011;363;48.764;9.172;2022-10-12T01:36:47;18.48;;;15.60;;
757;SDS011;363;48.764;9.172;2022-10-12T01:39:24;20.95;;;15.77;;
757;SDS011;363;48.764;9.172;2022-10-12T01:41:55;18.33;;;15.10;;
757;SDS011;363;48.764;9.172;2022-10-12T01:44:25;21.98;;;16.30;;
757;SDS011;363;48.764;9.172;2022-10-12T01:46:52;19.85;;;15.32;;
757;SDS011;363;48.764;9.172;2022-10-12T01:49:20;20.75;;;16.58;;
757;SDS011;363;48.764;9.172;2022-10-12T01:51:58;20.92;;;17.08;;
757;SDS011;363;48.764;9.172;2022-10-12T01:54:45;18.88;;;15.30;;
757;SDS011;363;48.764;9.172;2022-10-12T02:13:25;17.23;;;15.48;;
757;SDS011;363;48.764;9.172;2022-10-12T02:15:54;23.85;;;16.27;;
757;SDS011;363;48.764;9.172;2022-10-12T02:18:22;21.48;;;15.15;;
757;SDS011;363;48.764;9.172;2022-10-12T02:20:50;21.77;;;15.25;;
757;SDS011;363;48.764;9.172;2022-10-12T02:23:17;19.15;;;14.88;;
757;SDS011;363;48.764;9.172;2022-10-12T02:25:45;20.48;;;16.15;;
757;SDS011;363;48.764;9.172;2022-10-12T02:28:13;16.50;;;14.47;;
757;SDS011;363;48.764;9.172;2022-10-12T02:30:53;19.00;;;14.65;;
757;SDS011;363;48.764;9.172;2022-10-12T02:33:35;20.30;;;14.65;;
757;SDS011;363;48.764;9.172;2022-10-12T02:36:10;18.45;;;15.32;;
757;SDS011;363;48.764;9.172;2022-10-12T02:38:42;18.58;;;15.30;;
757;SDS011;363;48.764;9.172;2022-10-12T02:41:18;17.98;;;13.93;;
757;SDS011;363;48.764;9.172;2022-10-12T02:43:51;20.98;;;16.13;;
757;SDS011;363;48.764;9.172;2022-10-12T02:46:21;18.60;;;15.00;;
757;SDS011;363;48.764;9.172;2022-10-12T02:48:49;20.05;;;15.80;;
757;SDS011;363;48.764;9.172;2022-10-12T02:51:16;21.83;;;14.63;;
757;SDS011;363;48.764;9.172;2022-10-12T02:53:42;16.65;;;14.30;;
757;SDS011;363;48.764;9.172;2022-10-12T02:56:10;17.23;;;14.20;;
757;SDS011;363;48.764;9.172;2022-10-12T02:58:37;19.02;;;15.18;;
757;SDS011;363;48.764;9.172;2022-10-12T03:01:03;17.40;;;13.93;;
757;SDS011;363;48.764;9.172;2022-10-12T03:03:29;16.77;;;14.00;;
757;SDS011;363;48.764;9.172;2022-10-12T03:05:55;15.83;;;12.67;;
757;SDS011;363;48.764;9.172;2022-10-12T03:08:20;13.83;;;12.40;;
757;SDS011;363;48.764;9.172;2022-10-12T03:10:46;18.17;;;11.93;;
757;SDS011;363;48.764;9.172;2022-10-12T03:13:11;15.73;;;12.00;;
757;SDS011;363;48.764;9.172;2022-10-12T03:15:37;14.20;;;12.80;;
757;SDS011;363;48.764;9.172;2022-10-12T03:18:03;12.87;;;11.33;;
757;SDS011;363;48.764;9.172;2022-10-12T03:20:28;13.70;;;12.30;;
757;SDS011;363;48.764;9.172;2022-10-12T03:22:54;14.17;;;12.73;;
757;SDS011;363;48.764;9.172;2022-10-12T03:25:19;21.93;;;14.00;;
757;SDS011;363;48.764;9.172;2022-10-12T03:27:45;14.23;;;11.30;;
757;SDS011;363;48.764;9.172;2022-10-12T03:30:11;14.30;;;11.83;;
757;SDS011;363;48.764;9.172;2022-10-12T03:32:37;14.48;;;12.15;;
757;SDS011;363;48.764;9.172;2022-10-12T03:35:04;18.17;;;11.75;;
757;SDS011;363;48.764;9.172;2022-10-12T03:37:30;12.82;;;11.55;;
757;SDS011;363;48.764;9.172;2022-10-12T03:39:55;14.33;;;12.70;;
757;SDS011;363;48.764;9.172;2022-10-12T03:42:21;13.70;;;12.30;;
757;SDS011;363;48.764;9.172;2022-10-12T03:44:46;15.40;;;13.07;;
757;SDS011;363;48.764;9.172;2022-10-12T03:47:12;13.40;;;12.10;;
757;SDS011;363;48.764;9.172;2022-10-12T03:49:38;17.13;;;12.93;;
757;SDS011;363;48.764;9.172;2022-10-12T03:52:03;14.50;;;12.50;;
757;SDS011;363;48.764;9.172;2022-10-12T03:54:29;15.23;;;12.93;;
757;SDS011;363;48.764;9.172;2022-10-12T03:56:55;14.57;;;12.20;;
757;SDS011;363;48.764;9.172;2022-10-12T03:59:20;15.73;;;12.60;;
757;SDS011;363;48.764;9.172;2022-10-12T04:01:46;16.67;;;14.10;;
757;SDS011;363;48.764;9.172;2022-10-12T04:04:11;16.30;;;13.27;;
757;SDS011;363;48.764;9.172;2022-10-12T04:06:37;17.00;;;13.50;;
757;SDS011;363;48.764;9.172;2022-10-12T04:09:03;18.60;;;12.70;;
757;SDS011;363;48.764;9.172;2022-10-12T04:11:28;14.43;;;12.80;;
757;SDS011;363;48.764;9.172;2022-10-12T04:13:54;14.67;;;13.07;;
757;SDS011;363;48.764;9.172;2022-10-12T04:16:19;14.97;;;13.10;;
757;SDS011;363;48.764;9.172;2022-10-12T04:18:45;17.02;;;14.35;;
757;SDS011;363;48.764;9.172;2022-10-12T04:21:12;15.70;;;13.83;;
757;SDS011;363;48.764;9.172;2022-10-12T04:23:39;14.27;;;12.77;;
757;SDS011;363;48.764;9.172;2022-10-12T04:26:06;14.90;;;13.38;;
757;SDS011;363;48.764;9.172;2022-10-12T04:28:32;16.23;;;12.70;;
757;SDS011;363;48.764;9.172;2022-10-12T04:30:58;17.43;;;12.87;;
757;SDS011;363;48.764;9.172;2022-10-12T04:33:23;13.90;;;12.40;;
757;SDS011;363;48.764;9.172;2022-10-12T04:35:49;14.97;;;13.50;;
757;SDS011;363;48.764;9.172;2022-10-12T04:38:15;14.33;;;12.83;;
757;SDS011;363;48.764;9.172;2022-10-12T04:40:44;16.30;;;13.60;;
757;SDS011;363;48.764;9.172;2022-10-12T04:43:10;14.73;;;13.10;;
757;SDS011;363;48.764;9.172;2022-10-12T04:45:36;15.93;;;14.23;;
757;SDS011;363;48.764;9.172;2022-10-12T04:48:01;16.80;;;15.00;;
757;SDS011;363;48.764;9.172;2022-10-12T04:50:27;16.37;;;14.60;;
757;SDS011;363;48.764;9.172;2022-10-12T04:52:53;13.97;;;12.47;;
757;SDS011;363;48.764;9.172;2022-10-12T04:55:18;16.10;;;13.50;;
757;SDS011;363;48.764;9.172;2022-10-12T04:57:44;15.90;;;13.30;;
757;SDS011;363;48.764;9.172;2022-10-12T05:00:09;15.23;;;13.60;;
757;SDS011;363;48.764;9.172;2022-10-12T05:02:35;15.90;;;13.88;;
757;SDS011;363;48.764;9.172;2022-10-12T05:05:01;14.50;;;13.00;;
757;SDS011;363;48.764;9.172;2022-10-12T05:07:27;15.47;;;13.03;;
757;SDS011;363;48.764;9.172;2022-10-12T05:09:52;15.77;;;12.70;;
757;SDS011;363;48.764;9.172;2022-10-12T05:12:18;19.57;;;14.33;;
757;SDS011;363;48.764;9.172;2022-10-12T05:14:43;17.13;;;14.37;;
757;SDS011;363;48.764;9.172;2022-10-12T05:17:09;15.97;;;14.27;;
757;SDS011;363;48.764;9.172;2022-10-12T05:19:35;16.93;;;14.90;;
757;SDS011;363;48.764;9.172;2022-10-12T05:22:01;16.67;;;14.27;;
757;SDS011;363;48.764;9.172;2022-10-12T05:24:26;20.00;;;13.47;;
757;SDS011;363;48.764;9.172;2022-10-12T05:26:52;15.20;;;13.63;;
757;SDS011;363;48.764;9.172;2022-10-12T05:29:18;17.40;;;13.93;;
757;SDS011;363;48.764;9.172;2022-10-12T05:31:43;16.53;;;13.50;;
757;SDS011;363;48.764;9.172;2022-10-12T05:34:09;16.83;;;13.83;;
757;SDS011;363;48.764;9.172;2022-10-12T05:36:34;15.83;;;14.20;;
757;SDS011;363;48.764;9.172;2022-10-12T05:39:00;14.93;;;13.37;;
757;SDS011;363;48.764;9.172;2022-10-12T05:41:26;17.00;;;15.23;;
757;SDS011;363;48.764;9.172;2022-10-12T05:43:51;19.20;;;14.70;;
757;SDS011;363;48.764;9.172;2022-10-12T05:46:17;19.93;;;14.73;;
757;SDS011;363;48.764;9.172;2022-10-12T05:48:43;25.23;;;15.07;;
757;SDS011;363;48.764;9.172;2022-10-12T05:51:08;21.10;;;15.20;;
757;SDS011;363;48.764;9.172;2022-10-12T05:53:34;16.60;;;14.87;;
757;SDS011;363;48.764;9.172;2022-10-12T05:56:00;16.83;;;14.57;;
757;SDS011;363;48.764;9.172;2022-10-12T05:58:26;21.63;;;15.07;;
757;SDS011;363;48.764;9.172;2022-10-12T06:00:54;17.35;;;14.40;;
757;SDS011;363;48.764;9.172;2022-10-12T06:03:27;18.60;;;16.20;;
757;SDS011;363;48.764;9.172;2022-10-12T06:05:52;18.00;;;15.37;;
757;SDS011;363;48.764;9.172;2022-10-12T06:08:18;19.10;;;15.17;;
757;SDS011;363;48.764;9.172;2022-10-12T06:10:44;15.90;;;14.10;;
757;SDS011;363;48.764;9.172;2022-10-12T06:13:11;16.63;;;13.63;;
757;SDS011;363;48.764;9.172;2022-10-12T06:15:37;19.07;;;14.93;;
757;SDS011;363;48.764;9.172;2022-10-12T06:18:02;20.83;;;15.13;;
757;SDS011;363;48.764;9.172;2022-10-12T06:20:28;17.97;;;14.60;;
757;SDS011;363;48.764;9.172;2022-10-12T06:22:53;17.57;;;14.33;;
757;SDS011;363;48.764;9.172;2022-10-12T06:25:19;20.37;;;15.57;;
757;SDS011;363;48.764;9.172;2022-10-12T06:27:44;16.07;;;14.10;;
757;SDS011;363;48.764;9.172;2022-10-12T06:30:11;20.43;;;14.43;;
757;SDS011;363;48.764;9.172;2022-10-12T06:32:37;18.23;;;15.63;;
757;SDS011;363;48.764;9.172;2022-10-12T06:35:03;16.87;;;15.07;;
757;SDS011;363;48.764;9.172;2022-10-12T06:37:29;20.17;;;15.70;;
757;SDS011;363;48.764;9.172;2022-10-12T06:39:55;19.53;;;16.97;;
757;SDS011;363;48.764;9.172;2022-10-12T06:42:21;19.85;;;15.90;;
757;SDS011;363;48.764;9.172;2022-10-12T06:44:47;19.20;;;16.60;;
757;SDS011;363;48.764;9.172;2022-10-12T06:47:12;18.77;;;16.50;;
757;SDS011;363;48.764;9.172;2022-10-12T06:49:38;22.13;;;17.13;;
757;SDS011;363;48.764;9.172;2022-10-12T06:52:03;19.10;;;16.50;;
757;SDS011;363;48.764;9.172;2022-10-12T06:54:29;28.13;;;18.70;;
757;SDS011;363;48.764;9.172;2022-10-12T06:56:55;22.60;;;17.57;;
757;SDS011;363;48.764;9.172;2022-10-12T06:59:20;23.50;;;18.23;;
757;SDS011;363;48.764;9.172;2022-10-12T07:01:47;24.08;;;19.20;;
757;SDS011;363;48.764;9.172;2022-10-12T07:04:13;24.08;;;19.00;;
757;SDS011;363;48.764;9.172;2022-10-12T07:06:39;28.37;;;19.10;;
757;SDS011;363;48.764;9.172;2022-10-12T07:09:05;25.57;;;17.40;;
757;SDS011;363;48.764;9.172;2022-10-12T07:11:31;28.93;;;18.80;;
757;SDS011;363;48.764;9.172;2022-10-12T07:13:56;25.70;;;19.37;;
757;SDS011;363;48.764;9.172;2022-10-12T07:16:22;22.87;;;18.67;;
757;SDS011;363;48.764;9.172;2022-10-12T07:18:48;26.20;;;20.00;;
757;SDS011;363;48.764;9.172;2022-10-12T07:21:14;26.35;;;20.33;;
757;SDS011;363;48.764;9.172;2022-10-12T07:23:40;27.03;;;19.43;;
757;SDS011;363;48.764;9.172;2022-10-12T07:26:06;24.90;;;19.20;;
757;SDS011;363;48.764;9.172;2022-10-12T07:28:33;23.77;;;17.88;;
757;SDS011;363;48.764;9.172;2022-10-12T07:31:03;26.73;;;19.55;;
757;SDS011;363;48.764;9.172;2022-10-12T07:33:31;28.23;;;20.23;;
757;SDS011;363;48.764;9.172;2022-10-12T07:36:00;28.52;;;21.10;;
757;SDS011;363;48.764;9.172;2022-10-12T07:38:26;25.85;;;20.42;;
757;SDS011;363;48.764;9.172;2022-10-12T07:40:52;22.17;;;18.53;;
757;SDS011;363;48.764;9.172;2022-10-12T07:43:18;25.90;;;20.17;;
757;SDS011;363;48.764;9.172;2022-10-12T07:45:44;31.50;;;20.10;;
757;SDS011;363;48.764;9.172;2022-10-12T07:48:10;27.77;;;20.80;;
757;SDS011;363;48.764;9.172;2022-10-12T07:50:37;22.65;;;18.50;;
757;SDS011;363;48.764;9.172;2022-10-12T07:53:02;24.13;;;18.92;;
757;SDS011;363;48.764;9.172;2022-10-12T07:55:30;24.00;;;18.70;;
757;SDS011;363;48.764;9.172;2022-10-12T07:57:57;22.50;;;18.33;;
757;SDS011;363;48.764;9.172;2022-10-12T08:00:24;23.38;;;17.40;;
757;SDS011;363;48.764;9.172;2022-10-12T08:02:49;27.17;;;19.47;;
757;SDS011;363;48.764;9.172;2022-10-12T08:05:15;21.63;;;17.67;;
757;SDS011;363;48.764;9.172;2022-10-12T08:07:41;22.55;;;18.55;;
757;SDS011;363;48.764;9.172;2022-10-12T08:10:07;22.93;;;18.30;;
757;SDS011;363;48.764;9.172;2022-10-12T08:12:33;21.60;;;18.50;;
757;SDS011;363;48.764;9.172;2022-10-12T08:14:58;25.60;;;18.40;;
757;SDS011;363;48.764;9.172;2022-10-12T08:17:24;22.87;;;18.20;;
757;SDS011;363;48.764;9.172;2022-10-12T08:19:50;25.38;;;19.90;;
757;SDS011;363;48.764;9.172;2022-10-12T08:22:16;22.20;;;17.97;;
757;SDS011;363;48.764;9.172;2022-10-12T08:24:41;23.63;;;17.80;;
757;SDS011;363;48.764;9.172;2022-10-12T08:27:07;23.17;;;19.33;;
757;SDS011;363;48.764;9.172;2022-10-12T08:29:33;24.40;;;19.00;;
757;SDS011;363;48.764;9.172;2022-10-12T08:31:58;20.83;;;17.00;;
757;SDS011;363;48.764;9.172;2022-10-12T08:34:26;28.80;;;19.75;;
757;SDS011;363;48.764;9.172;2022-10-12T08:36:51;21.00;;;18.73;;
757;SDS011;363;48.764;9.172;2022-10-12T08:39:17;19.90;;;17.60;;
757;SDS011;363;48.764;9.172;2022-10-12T08:42:01;19.73;;;16.60;;
757;SDS011;363;48.764;9.172;2022-10-12T08:47:28;19.80;;;16.85;;
757;SDS011;363;48.764;9.172;2022-10-12T08:50:02;18.88;;;16.45;;
757;SDS011;363;48.764;9.172;2022-10-12T08:52:32;22.23;;;16.13;;
757;SDS011;363;48.764;9.172;2022-10-12T08:55:15;18.27;;;14.80;;
757;SDS011;363;48.764;9.172;2022-10-12T08:57:57;17.13;;;14.93;;
757;SDS011;363;48.764;9.172;2022-10-12T09:00:22;20.23;;;17.07;;
757;SDS011;363;48.764;9.172;2022-10-12T09:03:11;17.92;;;14.73;;
757;SDS011;363;48.764;9.172;2022-10-12T09:05:46;19.10;;;14.70;;
757;SDS011;363;48.764;9.172;2022-10-12T09:16:33;15.30;;;13.25;;
757;SDS011;363;48.764;9.172;2022-10-12T09:19:06;15.95;;;13.10;;
757;SDS011;363;48.764;9.172;2022-10-12T09:21:37;15.10;;;11.65;;
757;SDS011;363;48.764;9.172;2022-10-12T09:24:07;14.07;;;11.77;;
757;SDS011;363;48.764;9.172;2022-10-12T09:26:47;16.65;;;11.90;;
757;SDS011;363;48.764;9.172;2022-10-12T09:34:36;13.20;;;11.50;;
757;SDS011;363;48.764;9.172;2022-10-12T09:37:02;14.90;;;11.67;;
757;SDS011;363;48.764;9.172;2022-10-12T09:39:30;16.13;;;10.60;;
757;SDS011;363;48.764;9.172;2022-10-12T09:41:59;15.32;;;11.70;;
757;SDS011;363;48.764;9.172;2022-10-12T09:50:56;12.45;;;10.50;;
757;SDS011;363;48.764;9.172;2022-10-12T09:55:57;12.68;;;10.05;;
757;SDS011;363;48.764;9.172;2022-10-12T09:59:05;12.77;;;10.50;;
757;SDS011;363;48.764;9.172;2022-10-12T10:01:41;12.70;;;10.90;;
757;SDS011;363;48.764;9.172;2022-10-12T10:04:41;15.23;;;11.90;;
757;SDS011;363;48.764;9.172;2022-10-12T10:07:19;15.90;;;11.30;;
757;SDS011;363;48.764;9.172;2022-10-12T10:15:25;14.02;;;10.75;;
757;SDS011;363;48.764;9.172;2022-10-12T10:17:54;12.93;;;10.27;;
757;SDS011;363;48.764;9.172;2022-10-12T10:22:59;11.32;;;10.13;;
757;SDS011;363;48.764;9.172;2022-10-12T10:25:27;11.43;;;10.30;;
757;SDS011;363;48.764;9.172;2022-10-12T10:28:27;14.90;;;11.10;;
757;SDS011;363;48.764;9.172;2022-10-12T10:30:57;12.77;;;10.48;;
757;SDS011;363;48.764;9.172;2022-10-12T10:36:32;16.65;;;12.10;;
757;SDS011;363;48.764;9.172;2022-10-12T10:39:03;11.38;;;10.18;;
757;SDS011;363;48.764;9.172;2022-10-12T10:41:32;13.90;;;9.10;;
757;SDS011;363;48.764;9.172;2022-10-12T10:44:01;11.68;;;10.10;;
757;SDS011;363;48.764;9.172;2022-10-12T10:46:30;10.27;;;9.10;;
757;SDS011;363;48.764;9.172;2022-10-12T10:49:02;11.13;;;9.93;;
757;SDS011;363;48.764;9.172;2022-10-12T10:54:19;11.27;;;9.20;;
757;SDS011;363;48.764;9.172;2022-10-12T10:57:05;12.45;;;9.90;;
757;SDS011;363;48.764;9.172;2022-10-12T11:04:56;12.38;;;9.75;;
757;SDS011;363;48.764;9.172;2022-10-12T11:07:32;15.18;;;9.85;;
757;SDS011;363;48.764;9.172;2022-10-12T11:10:04;14.70;;;10.60;;
757;SDS011;363;48.764;9.172;2022-10-12T11:12:42;11.85;;;10.65;;
757;SDS011;363;48.764;9.172;2022-10-12T11:15:13;11.02;;;9.80;;
757;SDS011;363;48.764;9.172;2022-10-12T11:17:49;11.55;;;9.95;;
757;SDS011;363;48.764;9.172;2022-10-12T11:20:27;14.63;;;10.50;;
757;SDS011;363;48.764;9.172;2022-10-12T11:28:50;15.50;;;11.32;;
757;SDS011;363;48.764;9.172;2022-10-12T11:31:23;14.85;;;10.68;;
757;SDS011;363;48.764;9.172;2022-10-12T11:33:54;12.57;;;10.18;;
757;SDS011;363;48.764;9.172;2022-10-12T11:36:23;12.02;;;9.52;;
757;SDS011;363;48.764;9.172;2022-10-12T11:38:52;10.90;;;9.82;;
757;SDS011;363;48.764;9.172;2022-10-12T11:41:23;14.27;;;10.75;;
757;SDS011;363;48.764;9.172;2022-10-12T11:44:00;10.95;;;9.82;;
757;SDS011;363;48.764;9.172;2022-10-12T11:46:33;10.70;;;9.70;;
757;SDS011;363;48.764;9.172;2022-10-12T11:51:42;12.73;;;9.88;;
757;SDS011;363;48.764;9.172;2022-10-12T11:56:53;12.65;;;11.40;;
757;SDS011;363;48.764;9.172;2022-10-12T12:02:29;10.30;;;9.07;;
757;SDS011;363;48.764;9.172;2022-10-12T12:05:04;12.60;;;9.43;;
757;SDS011;363;48.764;9.172;2022-10-12T12:13:28;13.32;;;8.93;;
757;SDS011;363;48.764;9.172;2022-10-12T12:18:29;12.83;;;9.23;;
757;SDS011;363;48.764;9.172;2022-10-12T12:20:58;12.70;;;9.23;;
757;SDS011;363;48.764;9.172;2022-10-12T12:23:33;12.15;;;8.93;;
757;SDS011;363;48.764;9.172;2022-10-12T12:26:04;9.93;;;8.30;;
757;SDS011;363;48.764;9.172;2022-10-12T12:28:46;8.90;;;8.00;;
757;SDS011;363;48.764;9.172;2022-10-12T12:31:14;9.38;;;8.13;;
757;SDS011;363;48.764;9.172;2022-10-12T12:33:49;12.00;;;8.70;;
757;SDS011;363;48.764;9.172;2022-10-12T12:36:44;8.55;;;7.60;;
757;SDS011;363;48.764;9.172;2022-10-12T12:42:01;8.68;;;7.88;;
757;SDS011;363;48.764;9.172;2022-10-12T12:44:36;10.05;;;7.40;;
757;SDS011;363;48.764;9.172;2022-10-12T12:52:04;9.05;;;7.18;;
757;SDS011;363;48.764;9.172;2022-10-12T12:54:51;11.18;;;7.25;;
757;SDS011;363;48.764;9.172;2022-10-12T13:02:44;10.00;;;6.80;;
757;SDS011;363;48.764;9.172;2022-10-12T13:05:39;7.97;;;7.18;;
757;SDS011;363;48.764;9.172;2022-10-12T13:16:44;8.45;;;7.03;;
757;SDS011;363;48.764;9.172;2022-10-12T13:19:15;7.30;;;6.70;;
757;SDS011;363;48.764;9.172;2022-10-12T13:21:43;9.15;;;6.47;;
757;SDS011;363;48.764;9.172;2022-10-12T13:26:55;11.73;;;6.38;;
757;SDS011;363;48.764;9.172;2022-10-12T13:35:29;7.57;;;6.88;;
757;SDS011;363;48.764;9.172;2022-10-12T13:38:21;10.88;;;6.65;;
757;SDS011;363;48.764;9.172;2022-10-12T13:43:34;5.90;;;5.40;;
757;SDS011;363;48.764;9.172;2022-10-12T13:46:06;7.53;;;6.75;;
757;SDS011;363;48.764;9.172;2022-10-12T13:48:57;7.30;;;6.65;;
757;SDS011;363;48.764;9.172;2022-10-12T13:51:25;6.80;;;6.10;;
757;SDS011;363;48.764;9.172;2022-10-12T13:53:52;11.32;;;6.95;;
757;SDS011;363;48.764;9.172;2022-10-12T13:56:25;7.50;;;5.90;;
757;SDS011;363;48.764;9.172;2022-10-12T13:58:55;9.60;;;6.40;;
757;SDS011;363;48.764;9.172;2022-10-12T14:01:24;6.80;;;5.82;;
757;SDS011;363;48.764;9.172;2022-10-12T14:03:50;6.78;;;6.10;;
757;SDS011;363;48.764;9.172;2022-10-12T14:06:23;6.30;;;5.70;;
757;SDS011;363;48.764;9.172;2022-10-12T14:08:54;7.32;;;5.85;;
757;SDS011;363;48.764;9.172;2022-10-12T14:11:22;9.07;;;6.75;;
757;SDS011;363;48.764;9.172;2022-10-12T14:13:49;10.75;;;5.82;;
757;SDS011;363;48.764;9.172;2022-10-12T14:16:16;6.30;;;5.70;;
757;SDS011;363;48.764;9.172;2022-10-12T14:18:42;7.03;;;6.35;;
757;SDS011;363;48.764;9.172;2022-10-12T14:23:47;7.55;;;6.47;;
757;SDS011;363;48.764;9.172;2022-10-12T14:26:37;8.57;;;6.60;;
757;SDS011;363;48.764;9.172;2022-10-12T14:31:53;10.98;;;6.60;;
757;SDS011;363;48.764;9.172;2022-10-12T14:39:41;9.43;;;6.18;;
757;SDS011;363;48.764;9.172;2022-10-12T14:42:42;17.50;;;7.85;;
757;SDS011;363;48.764;9.172;2022-10-12T14:45:01;7.57;;;6.88;;
757;SDS011;363;48.764;9.172;2022-10-12T14:47:30;12.60;;;9.50;;
757;SDS011;363;48.764;9.172;2022-10-12T14:50:07;7.82;;;7.03;;
757;SDS011;363;48.764;9.172;2022-10-12T14:52:38;11.48;;;6.75;;
757;SDS011;363;48.764;9.172;2022-10-12T14:55:12;9.48;;;6.82;;
757;SDS011;363;48.764;9.172;2022-10-12T14:57:38;8.05;;;7.25;;
757;SDS011;363;48.764;9.172;2022-10-12T15:00:04;10.27;;;7.20;;
757;SDS011;363;48.764;9.172;2022-10-12T15:02:30;7.57;;;6.88;;
757;SDS011;363;48.764;9.172;2022-10-12T15:04:57;8.85;;;7.30;;
757;SDS011;363;48.764;9.172;2022-10-12T15:07:24;8.43;;;7.63;;
757;SDS011;363;48.764;9.172;2022-10-12T15:09:53;7.43;;;6.55;;
757;SDS011;363;48.764;9.172;2022-10-12T15:12:19;11.43;;;7.37;;
757;SDS011;363;48.764;9.172;2022-10-12T15:14:46;8.88;;;7.15;;
757;SDS011;363;48.764;9.172;2022-10-12T15:17:13;7.30;;;6.60;;
757;SDS011;363;48.764;9.172;2022-10-12T15:19:40;10.85;;;7.10;;
757;SDS011;363;48.764;9.172;2022-10-12T15:22:09;9.25;;;6.82;;
757;SDS011;363;48.764;9.172;2022-10-12T15:24:53;9.45;;;7.97;;
757;SDS011;363;48.764;9.172;2022-10-12T15:27:19;9.55;;;6.38;;
757;SDS011;363;48.764;9.172;2022-10-12T15:29:45;7.95;;;7.13;;
757;SDS011;363;48.764;9.172;2022-10-12T15:32:13;9.15;;;7.30;;
757;SDS011;363;48.764;9.172;2022-10-12T15:34:40;7.70;;;6.45;;
757;SDS011;363;48.764;9.172;2022-10-12T15:37:05;10.47;;;7.33;;
757;SDS011;363;48.764;9.172;2022-10-12T15:39:31;11.00;;;7.00;;
757;SDS011;363;48.764;9.172;2022-10-12T15:41:57;10.63;;;8.10;;
757;SDS011;363;48.764;9.172;2022-10-12T15:44:23;14.50;;;7.17;;
757;SDS011;363;48.764;9.172;2022-10-12T15:46:50;8.80;;;6.93;;
757;SDS011;363;48.764;9.172;2022-10-12T15:49:16;10.88;;;7.60;;
757;SDS011;363;48.764;9.172;2022-10-12T15:51:45;12.70;;;8.90;;
757;SDS011;363;48.764;9.172;2022-10-12T15:54:12;9.52;;;7.40;;
757;SDS011;363;48.764;9.172;2022-10-12T15:56:38;9.80;;;7.40;;
757;SDS011;363;48.764;9.172;2022-10-12T15:59:04;9.30;;;7.23;;
757;SDS011;363;48.764;9.172;2022-10-12T16:01:30;7.90;;;7.10;;
757;SDS011;363;48.764;9.172;2022-10-12T16:03:57;10.07;;;8.15;;
757;SDS011;363;48.764;9.172;2022-10-12T16:06:22;8.43;;;7.20;;
757;SDS011;363;48.764;9.172;2022-10-12T16:08:48;9.27;;;7.60;;
757;SDS011;363;48.764;9.172;2022-10-12T16:11:14;11.90;;;8.00;;
757;SDS011;363;48.764;9.172;2022-10-12T16:13:41;9.23;;;7.97;;
757;SDS011;363;48.764;9.172;2022-10-12T16:16:09;10.10;;;7.55;;
757;SDS011;363;48.764;9.172;2022-10-12T16:18:34;7.00;;;6.23;;
757;SDS011;363;48.764;9.172;2022-10-12T16:21:01;14.73;;;7.40;;
757;SDS011;363;48.764;9.172;2022-10-12T16:23:28;9.07;;;7.50;;
757;SDS011;363;48.764;9.172;2022-10-12T16:25:56;9.82;;;7.15;;
757;SDS011;363;48.764;9.172;2022-10-12T16:28:23;9.20;;;8.18;;
757;SDS011;363;48.764;9.172;2022-10-12T16:30:49;12.80;;;8.50;;
757;SDS011;363;48.764;9.172;2022-10-12T16:33:15;11.27;;;8.20;;
757;SDS011;363;48.764;9.172;2022-10-12T16:35:41;8.65;;;6.82;;
757;SDS011;363;48.764;9.172;2022-10-12T16:38:07;8.30;;;7.50;;
757;SDS011;363;48.764;9.172;2022-10-12T16:40:34;8.33;;;6.93;;
757;SDS011;363;48.764;9.172;2022-10-12T16:43:00;13.85;;;6.97;;
757;SDS011;363;48.764;9.172;2022-10-12T16:45:25;8.53;;;7.73;;
757;SDS011;363;48.764;9.172;2022-10-12T16:47:51;16.70;;;9.70;;
757;SDS011;363;48.764;9.172;2022-10-12T16:50:18;13.05;;;11.75;;
757;SDS011;363;48.764;9.172;2022-10-12T16:52:45;12.43;;;8.73;;
757;SDS011;363;48.764;9.172;2022-10-12T16:55:11;9.43;;;7.75;;
757;SDS011;363;48.764;9.172;2022-10-12T16:57:37;15.20;;;9.00;;
757;SDS011;363;48.764;9.172;2022-10-12T17:00:07;11.25;;;8.75;;
757;SDS011;363;48.764;9.172;2022-10-12T17:02:35;13.02;;;9.27;;
757;SDS011;363;48.764;9.172;2022-10-12T17:05:01;14.27;;;9.88;;
757;SDS011;363;48.764;9.172;2022-10-12T17:07:27;9.20;;;8.00;;
757;SDS011;363;48.764;9.172;2022-10-12T17:09:53;9.70;;;8.40;;
757;SDS011;363;48.764;9.172;2022-10-12T17:12:22;12.05;;;8.15;;
757;SDS011;363;48.764;9.172;2022-10-12T17:14:48;11.32;;;7.93;;
757;SDS011;363;48.764;9.172;2022-10-12T17:17:15;11.30;;;8.10;;
757;SDS011;363;48.764;9.172;2022-10-12T17:19:41;12.23;;;9.23;;
757;SDS011;363;48.764;9.172;2022-10-12T17:22:07;8.70;;;7.80;;
757;SDS011;363;48.764;9.172;2022-10-12T17:24:35;11.98;;;8.35;;
757;SDS011;363;48.764;9.172;2022-10-12T17:27:02;10.77;;;9.02;;
757;SDS011;363;48.764;9.172;2022-10-12T17:29:29;13.43;;;9.75;;
757;SDS011;363;48.764;9.172;2022-10-12T17:31:56;13.13;;;8.52;;
757;SDS011;363;48.764;9.172;2022-10-12T17:34:26;11.75;;;9.68;;
757;SDS011;363;48.764;9.172;2022-10-12T17:36:56;10.75;;;9.63;;
757;SDS011;363;48.764;9.172;2022-10-12T17:39:23;13.18;;;8.40;;
757;SDS011;363;48.764;9.172;2022-10-12T17:41:49;11.68;;;9.45;;
757;SDS011;363;48.764;9.172;2022-10-12T17:44:15;11.07;;;7.67;;
757;SDS011;363;48.764;9.172;2022-10-12T17:46:41;11.13;;;8.20;;
757;SDS011;363;48.764;9.172;2022-10-12T17:49:09;14.50;;;9.27;;
757;SDS011;363;48.764;9.172;2022-10-12T17:51:36;9.50;;;7.80;;
757;SDS011;363;48.764;9.172;2022-10-12T17:54:03;15.35;;;10.23;;
757;SDS011;363;48.764;9.172;2022-10-12T17:56:28;14.53;;;9.00;;